Time;durP1;ratioP1;P1;durP2;ratioP2;P2;SDS_P1;SDS_P2;PMS_P1;PMS_P2;Temp;Humidity;BMP_temperature;BMP_pressure;BME280_temperature;BME280_humidity;BME280_pressure;Samples;Min_cycle;Max_cycle;Signal;HPM_P1;HPM_P2
2023/01/18 00:01:18;;;;;;;;;;;;;;;27.99;62.49;101223.78;5069074;27;70547;-41
2023/01/18 00:03:50;;;;;;;;;;;;;;;28.02;62.67;101225.25;5074769;27;66783;-40
2023/01/18 00:06:21;;;;;;;;;;;;;;;28.05;62.65;101228.44;5088612;27;70491;-40
2023/01/18 00:08:54;;;;;;;;;;;;;;;28.04;62.92;101225.91;5084891;27;66035;-41
2023/01/18 00:11:24;;;;;;;;;;;;;;;28.05;63.17;101235.66;5051319;28;70361;-42
2023/01/18 00:13:55;;;;;;;;;;;;;;;28.07;63.62;101237.13;5080405;27;66339;-41
2023/01/18 00:16:26;;;;;;;;;;;;;;;28.07;63.52;101234.44;5085255;27;70262;-41
2023/01/18 00:18:57;;;;;;;;;;;;;;;28.08;63.37;101243.34;5082063;27;65497;-40
2023/01/18 00:21:28;;;;;;;;;;;;;;;28.11;63.44;101243.00;5080576;27;70439;-39
2023/01/18 00:23:59;;;;;;;;;;;;;;;28.18;63.94;101249.28;5083871;27;66459;-41
2023/01/18 00:26:30;;;;;;;;;;;;;;;28.19;64.31;101248.22;5079044;27;70523;-40
2023/01/18 00:29:01;;;;;;;;;;;;;;;28.20;64.05;101252.63;5087788;27;66713;-41
2023/01/18 00:31:32;;;;;;;;;;;;;;;28.21;64.55;101266.94;5078762;27;70404;-40
2023/01/18 00:34:03;;;;;;;;;;;;;;;28.15;63.33;101273.09;5086749;27;66590;-41
2023/01/18 00:36:34;;;;;;;;;;;;;;;28.17;63.82;101276.47;5057980;27;70676;-41
2023/01/18 00:39:04;;;;;;;;;;;;;;;28.22;63.53;101280.25;5080740;27;66110;-41
2023/01/18 00:43:37;;;;;;;;;;;;;;;28.25;63.70;101292.47;5070907;27;69645;-40
2023/01/18 00:44:26;;;;;;;;;;;;;;;28.25;63.82;101292.47;5082641;27;65604;-39
2023/01/18 00:46:57;;;;;;;;;;;;;;;28.28;63.42;101297.53;5041454;28;69026;-41
2023/01/18 00:49:27;;;;;;;;;;;;;;;28.29;63.61;101299.19;5084033;27;66924;-40
2023/01/18 00:51:59;;;;;;;;;;;;;;;28.30;63.67;101303.53;5086113;27;69995;-40
2023/01/18 00:54:29;;;;;;;;;;;;;;;28.33;63.56;101311.25;5074995;27;65985;-41
2023/01/18 00:57:01;;;;;;;;;;;;;;;28.32;63.09;101314.97;5059782;27;69950;-42
2023/01/18 00:59:31;;;;;;;;;;;;;;;28.31;63.11;101320.59;5082338;28;66342;-41
2023/01/18 01:02:02;;;;;;;;;;;;;;;28.26;62.24;101326.53;5082948;27;70553;-42
2023/01/18 01:07:22;;;;;;;;;;;;;;;28.27;63.23;101336.31;5075968;27;70591;-42
2023/01/18 01:09:53;;;;;;;;;;;;;;;28.27;62.93;101339.00;5081587;27;65824;-42
2023/01/18 01:26:27;;;;;;;;;;;;;;;28.26;62.95;101358.91;5083452;27;65392;-41
2023/01/18 01:28:58;;;;;;;;;;;;;;;28.25;62.93;101343.75;5075229;27;70703;-42
2023/01/18 01:31:28;;;;;;;;;;;;;;;28.28;62.46;101354.19;5078515;28;66728;-43
2023/01/18 01:33:59;;;;;;;;;;;;;;;28.26;62.22;101357.06;5044400;28;69133;-42
2023/01/18 01:36:30;;;;;;;;;;;;;;;28.27;62.28;101366.81;5079109;27;66458;-41
2023/01/18 01:39:00;;;;;;;;;;;;;;;28.28;62.62;101364.97;5075289;27;68281;-41
2023/01/18 01:41:32;;;;;;;;;;;;;;;28.26;62.28;101361.63;5058676;28;66703;-42
2023/01/18 01:44:19;;;;;;;;;;;;;;;28.29;62.66;101358.53;5075861;27;69992;-42
2023/01/18 01:46:51;;;;;;;;;;;;;;;28.32;63.15;101358.16;5076851;27;66955;-41
2023/01/18 01:49:31;;;;;;;;;;;;;;;28.35;63.06;101357.75;5050377;27;70443;-42
2023/01/18 01:52:06;;;;;;;;;;;;;;;28.38;63.81;101351.97;5075788;27;67829;-43
2023/01/18 01:54:40;;;;;;;;;;;;;;;28.42;64.07;101358.72;5054812;27;70412;-42
2023/01/18 01:57:30;;;;;;;;;;;;;;;28.44;63.66;101359.34;5078384;27;66645;-41
2023/01/18 02:00:07;;;;;;;;;;;;;;;28.46;63.48;101354.59;5079002;27;70929;-41
2023/01/18 02:02:42;;;;;;;;;;;;;;;28.49;63.62;101354.19;5052906;27;66013;-42
2023/01/18 02:05:14;;;;;;;;;;;;;;;28.54;63.47;101360.91;5059687;27;69975;-42
2023/01/18 02:07:46;;;;;;;;;;;;;;;28.58;63.82;101362.16;5074996;27;67148;-42
2023/01/18 02:10:17;;;;;;;;;;;;;;;28.61;63.68;101365.34;5077899;28;69808;-40
2023/01/18 02:12:50;;;;;;;;;;;;;;;28.63;64.25;101359.72;5072893;27;66030;-42
2023/01/18 02:15:30;;;;;;;;;;;;;;;28.67;63.94;101366.44;5079829;27;70558;-41
2023/01/18 02:18:06;;;;;;;;;;;;;;;28.66;64.23;101365.56;5077200;27;65973;-42
2023/01/18 02:20:43;;;;;;;;;;;;;;;28.69;64.24;101358.94;5077190;27;70366;-41
2023/01/18 02:23:25;;;;;;;;;;;;;;;28.71;64.86;101354.19;5081859;27;66488;-41
2023/01/18 02:26:16;;;;;;;;;;;;;;;28.73;65.02;101357.53;5086583;27;70273;-43
2023/01/18 02:28:52;;;;;;;;;;;;;;;28.75;65.47;101358.16;5075922;27;66208;-42
2023/01/18 02:31:26;;;;;;;;;;;;;;;28.76;65.73;101348.22;5080489;27;69733;-40
2023/01/18 02:34:06;;;;;;;;;;;;;;;28.78;65.27;101357.81;5075340;27;65546;-42
2023/01/18 02:36:44;;;;;;;;;;;;;;;28.80;65.07;101352.19;5081606;27;70229;-42
2023/01/18 02:39:22;;;;;;;;;;;;;;;28.82;65.20;101359.06;5077615;27;65989;-40
2023/01/18 02:47:36;;;;;;;;;;;;;;;28.84;65.10;101357.00;5075298;27;70572;-42
2023/01/18 02:50:07;;;;;;;;;;;;;;;28.85;64.97;101357.84;5061823;27;66500;-41
2023/01/18 02:52:46;;;;;;;;;;;;;;;28.85;65.21;101347.88;5076636;27;70413;-41
2023/01/18 02:55:19;;;;;;;;;;;;;;;28.88;64.23;101350.19;5075720;27;66325;-41
2023/01/18 02:57:51;;;;;;;;;;;;;;;28.86;64.16;101341.47;5070557;27;70108;-42
2023/01/18 03:00:23;;;;;;;;;;;;;;;28.89;64.18;101345.59;5058102;28;65356;-41
2023/01/18 03:02:55;;;;;;;;;;;;;;;28.89;63.79;101346.47;5063189;27;69323;-43
2023/01/18 03:05:30;;;;;;;;;;;;;;;28.89;63.98;101348.31;5080886;27;65450;-43
2023/01/18 03:08:20;;;;;;;;;;;;;;;28.87;63.38;101345.81;5073207;27;70113;-42
2023/01/18 03:11:02;;;;;;;;;;;;;;;28.88;63.00;101336.69;5075448;27;66496;-43
2023/01/18 03:13:48;;;;;;;;;;;;;;;28.90;63.92;101340.03;5052102;27;69858;-41
2023/01/18 03:16:21;;;;;;;;;;;;;;;28.95;64.01;101336.75;5069199;27;66247;-42
2023/01/18 03:19:04;;;;;;;;;;;;;;;28.99;63.63;101331.78;5054250;27;70068;-41
2023/01/18 03:21:47;;;;;;;;;;;;;;;29.02;63.57;101323.28;5073298;27;65154;-41
2023/01/18 03:24:19;;;;;;;;;;;;;;;29.06;63.33;101324.56;5072833;27;70082;-42
2023/01/18 03:26:52;;;;;;;;;;;;;;;29.08;62.78;101328.75;5075141;27;66085;-45
2023/01/18 03:35:06;;;;;;;;;;;;;;;29.17;62.94;101334.84;5068597;27;69748;-41
2023/01/18 03:37:41;;;;;;;;;;;;;;;29.20;63.01;101329.06;5077727;27;67493;-42
2023/01/18 03:40:16;;;;;;;;;;;;;;;29.23;62.97;101333.22;5060985;27;71065;-41
2023/01/18 03:42:52;;;;;;;;;;;;;;;29.24;62.71;101318.69;5077148;27;67112;-42
2023/01/18 03:45:32;;;;;;;;;;;;;;;29.25;62.76;101329.28;5073947;27;70388;-42
2023/01/18 03:48:04;;;;;;;;;;;;;;;29.23;62.68;101325.13;5070702;27;66224;-43
2023/01/18 03:50:38;;;;;;;;;;;;;;;29.26;62.87;101335.53;5059348;27;69798;-41
2023/01/18 03:53:12;;;;;;;;;;;;;;;29.24;62.66;101330.31;5080241;27;66423;-42
2023/01/18 03:55:46;;;;;;;;;;;;;;;29.25;62.36;101326.56;5075553;27;69902;-42
2023/01/18 03:58:21;;;;;;;;;;;;;;;29.28;62.64;101317.22;5056059;27;65235;-42
2023/01/18 04:00:52;;;;;;;;;;;;;;;29.32;62.77;101316.63;5054401;27;69968;-45
2023/01/18 04:03:23;;;;;;;;;;;;;;;29.35;62.33;101316.25;5073118;27;66315;-42
2023/01/18 04:05:53;;;;;;;;;;;;;;;29.37;62.02;101325.00;5074375;27;70469;-42
2023/01/18 04:08:24;;;;;;;;;;;;;;;29.41;61.44;101320.00;5071933;27;66609;-45
2023/01/18 04:10:55;;;;;;;;;;;;;;;29.45;61.46;101315.88;5076546;27;70001;-40
2023/01/18 04:13:26;;;;;;;;;;;;;;;29.47;61.00;101304.88;5069572;27;66357;-42
2023/01/18 04:15:56;;;;;;;;;;;;;;;29.49;60.86;101286.59;5075416;27;70442;-40
2023/01/18 04:18:27;;;;;;;;;;;;;;;29.51;61.08;101287.22;5076222;27;65970;-40
2023/01/18 04:20:58;;;;;;;;;;;;;;;29.55;61.02;101283.06;5080742;27;70811;-41
2023/01/18 04:23:29;;;;;;;;;;;;;;;29.62;60.88;101278.53;5084761;27;65978;-42
2023/01/18 04:25:59;;;;;;;;;;;;;;;29.67;61.04;101270.69;5087021;27;69926;-41
2023/01/18 04:28:32;;;;;;;;;;;;;;;29.71;60.66;101266.53;5079317;27;66708;-41
2023/01/18 04:31:03;;;;;;;;;;;;;;;29.76;60.20;101260.53;5047918;28;71441;-42
2023/01/18 04:33:34;;;;;;;;;;;;;;;29.80;60.10;101254.47;5079445;27;66170;-40
2023/01/18 04:36:05;;;;;;;;;;;;;;;29.81;60.03;101241.78;5082003;27;69889;-40
2023/01/18 04:38:36;;;;;;;;;;;;;;;29.86;60.29;101243.88;5081018;27;65796;-41
2023/01/18 04:41:07;;;;;;;;;;;;;;;29.91;60.04;101246.81;5083571;27;70087;-40
2023/01/18 04:43:37;;;;;;;;;;;;;;;29.93;59.49;101233.94;5081179;27;66921;-42
2023/01/18 04:46:08;;;;;;;;;;;;;;;29.96;59.39;101225.41;5061805;28;69831;-41
2023/01/18 04:48:39;;;;;;;;;;;;;;;29.89;58.63;101202.91;5079573;27;65610;-41
2023/01/18 04:51:12;;;;;;;;;;;;;;;29.79;58.66;101204.16;5077245;27;69386;-40
2023/01/18 04:53:43;;;;;;;;;;;;;;;29.73;58.53;101196.88;5069332;27;66145;-40
2023/01/18 04:56:13;;;;;;;;;;;;;;;29.71;59.58;101209.75;5094188;27;68657;-41
2023/01/18 04:58:44;;;;;;;;;;;;;;;29.71;59.99;101190.81;5079299;27;66186;-40
2023/01/18 05:01:15;;;;;;;;;;;;;;;29.56;59.00;101195.53;5081522;27;70342;-41
2023/01/18 05:03:46;;;;;;;;;;;;;;;29.31;57.30;101190.69;5080161;27;65278;-41
2023/01/18 05:06:20;;;;;;;;;;;;;;;29.12;54.46;101196.84;5082197;27;71165;-42
2023/01/18 05:08:51;;;;;;;;;;;;;;;29.02;53.76;101197.16;5078103;27;65597;-43
2023/01/18 05:11:22;;;;;;;;;;;;;;;28.88;52.01;101184.63;5077669;27;69515;-44
2023/01/18 05:13:53;;;;;;;;;;;;;;;28.78;50.54;101174.22;5076613;27;67130;-41
2023/01/18 05:16:24;;;;;;;;;;;;;;;28.76;50.13;101175.44;5060506;27;69762;-40
2023/01/18 05:18:55;;;;;;;;;;;;;;;28.62;49.00;101174.53;5075894;27;65329;-41
2023/01/18 05:21:27;;;;;;;;;;;;;;;28.56;48.07;101164.53;5076995;27;69898;-43
2023/01/18 05:23:58;;;;;;;;;;;;;;;28.50;48.18;101161.56;5075335;27;66674;-41
2023/01/18 05:26:29;;;;;;;;;;;;;;;28.64;47.65;101153.53;5061158;27;70333;-41
2023/01/18 05:28:59;;;;;;;;;;;;;;;28.65;46.84;101141.72;5082744;27;65438;-41
2023/01/18 05:31:30;;;;;;;;;;;;;;;28.60;46.47;101138.78;5085940;27;69985;-42
2023/01/18 05:34:01;;;;;;;;;;;;;;;28.58;45.56;101136.28;5068503;27;65559;-44
2023/01/18 05:36:32;;;;;;;;;;;;;;;28.53;45.43;101138.75;5084073;27;69929;-43
2023/01/18 05:39:02;;;;;;;;;;;;;;;28.48;44.58;101131.25;5089184;27;66719;-43
2023/01/18 05:41:33;;;;;;;;;;;;;;;28.43;44.48;101131.00;5079259;27;69764;-44
2023/01/18 05:44:04;;;;;;;;;;;;;;;28.44;44.06;101129.97;5063995;27;65980;-42
2023/01/18 05:46:34;;;;;;;;;;;;;;;28.40;43.86;101112.47;5085838;27;70401;-40
2023/01/18 05:49:05;;;;;;;;;;;;;;;28.36;43.12;101111.22;5080506;27;65915;-42
2023/01/18 05:51:35;;;;;;;;;;;;;;;28.32;43.57;101103.72;5076881;27;70264;-41
2023/01/18 05:54:06;;;;;;;;;;;;;;;28.30;43.13;101101.19;5066575;27;66000;-43
2023/01/18 05:56:37;;;;;;;;;;;;;;;28.27;42.69;101099.72;5090420;27;69681;-42
2023/01/18 05:59:07;;;;;;;;;;;;;;;28.26;42.83;101094.56;5085935;27;66032;-44
2023/01/18 06:01:38;;;;;;;;;;;;;;;28.23;42.23;101092.25;5081127;27;70773;-40
2023/01/18 06:04:09;;;;;;;;;;;;;;;28.24;42.29;101083.94;5083823;27;65272;-42
2023/01/18 06:06:40;;;;;;;;;;;;;;;28.22;42.13;101071.69;5081197;28;69904;-42
2023/01/18 06:09:11;;;;;;;;;;;;;;;28.19;42.08;101072.91;5082846;27;66261;-41
2023/01/18 06:11:41;;;;;;;;;;;;;;;28.22;42.16;101061.75;5080512;28;70006;-41
2023/01/18 06:14:12;;;;;;;;;;;;;;;28.14;42.15;101059.22;5084543;27;66839;-40
2023/01/18 06:16:42;;;;;;;;;;;;;;;28.14;42.10;101064.59;5080333;27;69790;-43
2023/01/18 06:19:13;;;;;;;;;;;;;;;28.12;41.68;101057.75;5085971;27;65909;-43
2023/01/18 06:21:44;;;;;;;;;;;;;;;28.12;41.33;101060.44;5081138;27;70135;-42
2023/01/18 06:24:14;;;;;;;;;;;;;;;28.10;41.62;101051.69;5083718;27;66743;-42
2023/01/18 06:26:45;;;;;;;;;;;;;;;28.12;41.91;101052.34;5078727;27;70052;-42
2023/01/18 06:29:16;;;;;;;;;;;;;;;28.14;41.32;101034.06;5086834;27;66865;-42
2023/01/18 06:31:46;;;;;;;;;;;;;;;28.09;41.27;101036.56;5079708;27;71121;-40
2023/01/18 06:34:17;;;;;;;;;;;;;;;28.13;41.17;101032.41;5078343;27;65992;-41
2023/01/18 06:36:48;;;;;;;;;;;;;;;28.10;41.05;101024.72;5076252;27;69197;-42
2023/01/18 06:39:20;;;;;;;;;;;;;;;28.09;41.46;101028.47;5052546;27;66451;-41
2023/01/18 06:41:50;;;;;;;;;;;;;;;28.07;41.50;101012.47;5076700;27;69657;-42
2023/01/18 06:44:22;;;;;;;;;;;;;;;28.10;41.20;100993.19;5071898;28;65473;-42
2023/01/18 06:46:53;;;;;;;;;;;;;;;28.07;41.13;100983.63;5076367;27;70674;-42
2023/01/18 06:49:23;;;;;;;;;;;;;;;28.07;41.53;100989.03;5076472;27;65764;-40
2023/01/18 06:51:54;;;;;;;;;;;;;;;27.87;42.38;100977.31;5057257;28;71101;-42
2023/01/18 06:54:25;;;;;;;;;;;;;;;28.00;42.94;100966.59;5058014;27;66487;-42
2023/01/18 06:56:56;;;;;;;;;;;;;;;28.13;43.77;100960.44;5076128;27;71038;-42
2023/01/18 06:59:27;;;;;;;;;;;;;;;28.28;44.28;100963.00;5075461;27;65496;-42
2023/01/18 07:01:58;;;;;;;;;;;;;;;28.39;44.67;100953.47;5053910;28;69531;-40
2023/01/18 07:04:36;;;;;;;;;;;;;;;28.52;45.47;100957.09;5079299;27;66396;-40
2023/01/18 07:07:07;;;;;;;;;;;;;;;28.63;46.43;100952.97;5073159;27;70300;-42
2023/01/18 07:09:38;;;;;;;;;;;;;;;28.75;46.61;100950.50;5059544;28;66316;-41
2023/01/18 07:12:08;;;;;;;;;;;;;;;28.82;46.96;100937.88;5072936;27;70391;-41
2023/01/18 07:14:39;;;;;;;;;;;;;;;28.93;47.41;100939.97;5078275;27;65854;-41
2023/01/18 07:17:10;;;;;;;;;;;;;;;29.04;47.50;100935.03;5058928;27;70161;-41
2023/01/18 07:19:41;;;;;;;;;;;;;;;29.12;47.79;100937.53;5085798;27;65265;-43
2023/01/18 07:22:12;;;;;;;;;;;;;;;29.21;48.16;100925.47;5062366;27;70380;-42
2023/01/18 07:24:43;;;;;;;;;;;;;;;29.29;48.14;100932.53;5080965;27;66750;-43
2023/01/18 07:27:13;;;;;;;;;;;;;;;29.33;49.05;100934.59;5076970;27;71092;-42
2023/01/18 07:29:44;;;;;;;;;;;;;;;29.42;48.96;100937.09;5079370;27;65580;-41
2023/01/18 07:32:17;;;;;;;;;;;;;;;29.47;49.60;100931.91;5074555;27;70211;-41
2023/01/18 07:34:48;;;;;;;;;;;;;;;29.54;49.60;100919.22;5071405;27;66727;-43
2023/01/18 07:37:18;;;;;;;;;;;;;;;29.63;50.70;100917.97;5076800;27;69932;-41
2023/01/18 07:39:51;;;;;;;;;;;;;;;29.66;51.23;100912.16;5074234;27;65353;-41
2023/01/18 07:42:21;;;;;;;;;;;;;;;29.72;52.20;100903.19;5056475;28;70385;-41
2023/01/18 07:44:52;;;;;;;;;;;;;;;29.76;52.57;100907.13;5074867;27;66059;-41
2023/01/18 07:47:22;;;;;;;;;;;;;;;29.81;53.23;100915.44;5082764;27;69155;-41
2023/01/18 07:49:53;;;;;;;;;;;;;;;29.85;52.96;100913.13;5066513;27;66110;-44
2023/01/18 07:52:24;;;;;;;;;;;;;;;29.90;53.49;100909.81;5094324;27;70333;-41
2023/01/18 07:54:55;;;;;;;;;;;;;;;29.95;53.26;100901.84;5063863;27;66063;-43
2023/01/18 07:57:25;;;;;;;;;;;;;;;29.99;53.71;100900.41;5079046;27;70830;-40
2023/01/18 07:59:56;;;;;;;;;;;;;;;30.03;53.57;100896.22;5072216;27;66039;-43
2023/01/18 08:02:27;;;;;;;;;;;;;;;30.05;54.02;100894.13;5067384;27;69487;-45
2023/01/18 08:04:58;;;;;;;;;;;;;;;30.07;54.49;100889.34;5077551;27;67102;-44
2023/01/18 08:07:31;;;;;;;;;;;;;;;30.10;55.07;100888.91;5077059;27;70825;-42
2023/01/18 08:10:01;;;;;;;;;;;;;;;30.19;53.38;100884.91;5070118;27;65612;-42
2023/01/18 08:12:32;;;;;;;;;;;;;;;30.23;54.13;100880.78;5062716;27;70115;-40
2023/01/18 08:15:03;;;;;;;;;;;;;;;30.26;54.93;100879.50;5082463;27;67618;-43
2023/01/18 08:17:34;;;;;;;;;;;;;;;30.28;55.09;100883.66;5080789;27;71295;-42
2023/01/18 08:20:08;;;;;;;;;;;;;;;30.28;55.56;100878.25;5081127;27;66003;-41
2023/01/18 08:22:38;;;;;;;;;;;;;;;30.30;55.95;100882.59;5082220;27;70332;-42
2023/01/18 08:25:09;;;;;;;;;;;;;;;30.33;56.65;100879.47;5055119;27;66235;-42
2023/01/18 08:27:40;;;;;;;;;;;;;;;30.37;56.80;100888.78;5081226;27;69790;-42
2023/01/18 08:30:11;;;;;;;;;;;;;;;30.38;57.51;100882.34;5081811;27;65571;-42
2023/01/18 08:32:42;;;;;;;;;;;;;;;30.40;58.97;100880.28;5055051;28;69239;-44
2023/01/18 08:35:12;;;;;;;;;;;;;;;30.44;57.79;100892.31;5082683;27;66754;-40
2023/01/18 08:37:43;;;;;;;;;;;;;;;30.47;57.75;100879.16;5079845;27;70596;-43
2023/01/18 08:40:14;;;;;;;;;;;;;;;30.46;58.99;100880.22;5061651;28;66330;-42
2023/01/18 08:42:45;;;;;;;;;;;;;;;30.50;59.08;100880.59;5080823;27;70081;-42
2023/01/18 08:45:16;;;;;;;;;;;;;;;30.48;59.44;100896.25;5080530;27;64804;-44
2023/01/18 08:47:47;;;;;;;;;;;;;;;30.49;59.80;100889.78;5081144;27;69899;-42
2023/01/18 08:50:18;;;;;;;;;;;;;;;30.49;60.02;100889.78;5079651;27;66603;-43
2023/01/18 08:52:51;;;;;;;;;;;;;;;30.49;59.99;100896.03;5077518;28;70342;-40
2023/01/18 08:55:22;;;;;;;;;;;;;;;30.48;60.33;100888.13;5077855;27;65697;-42
2023/01/18 08:57:53;;;;;;;;;;;;;;;30.48;60.73;100888.13;5080875;27;69987;-42
2023/01/18 09:00:29;;;;;;;;;;;;;;;30.47;61.35;100881.88;5078378;27;66310;-43
2023/01/18 09:03:01;;;;;;;;;;;;;;;30.46;61.43;100884.81;5069008;27;70256;-42
2023/01/18 09:05:34;;;;;;;;;;;;;;;30.47;61.05;100881.88;5082454;27;65704;-43
2023/01/18 09:08:04;;;;;;;;;;;;;;;30.47;61.77;100886.47;5077443;27;70058;-42
2023/01/18 09:10:37;;;;;;;;;;;;;;;30.47;61.48;100886.47;5073405;27;65685;-46
2023/01/18 09:13:09;;;;;;;;;;;;;;;30.47;61.72;100891.88;5080374;27;69831;-43
2023/01/18 09:15:40;;;;;;;;;;;;;;;30.46;62.05;100896.47;5081432;27;65704;-44
2023/01/18 09:18:12;;;;;;;;;;;;;;;30.43;61.87;100885.25;5079650;27;70421;-44
2023/01/18 09:20:43;;;;;;;;;;;;;;;30.43;61.40;100891.47;5080306;27;66562;-43
2023/01/18 09:23:13;;;;;;;;;;;;;;;30.43;61.00;100898.78;5084808;27;70178;-43
2023/01/18 09:25:44;;;;;;;;;;;;;;;30.42;60.46;100897.09;5089099;27;65720;-43
2023/01/18 09:28:15;;;;;;;;;;;;;;;30.40;60.41;100899.22;5085760;27;69831;-43
2023/01/18 09:30:46;;;;;;;;;;;;;;;30.41;60.28;100898.16;5082023;27;66238;-43
2023/01/18 09:33:17;;;;;;;;;;;;;;;30.39;59.88;100886.72;5086191;27;70058;-45
2023/01/18 09:35:48;;;;;;;;;;;;;;;30.37;60.12;100894.22;5084657;27;66283;-43
2023/01/18 09:38:19;;;;;;;;;;;;;;;30.36;60.04;100900.69;5082552;27;70269;-44
2023/01/18 09:40:50;;;;;;;;;;;;;;;30.34;59.94;100894.66;5063369;27;66207;-46
2023/01/18 09:43:51;;;;;;;;;;;;;;;30.33;60.34;100896.53;5081157;27;70715;-43
2023/01/18 09:46:22;;;;;;;;;;;;;;;30.43;60.36;100906.91;5063832;27;66252;-45
2023/01/18 09:48:58;;;;;;;;;;;;;;;30.57;59.76;100903.06;5079328;27;69902;-43
2023/01/18 09:51:29;;;;;;;;;;;;;;;30.66;59.71;100907.16;5077855;28;65532;-43
2023/01/18 09:54:03;;;;;;;;;;;;;;;30.74;59.35;100903.38;5078590;27;69367;-43
2023/01/18 09:56:51;;;;;;;;;;;;;;;30.80;58.96;100907.13;5078385;27;66254;-43
2023/01/18 09:59:51;;;;;;;;;;;;;;;30.85;58.43;100910.00;5079721;28;70086;-42
2023/01/18 10:02:23;;;;;;;;;;;;;;;30.90;58.37;100918.28;5048878;28;65590;-44
2023/01/18 10:04:56;;;;;;;;;;;;;;;30.92;57.96;100917.03;5061348;28;70129;-44
2023/01/18 10:07:29;;;;;;;;;;;;;;;30.94;57.29;100920.31;5078553;27;66652;-43
2023/01/18 10:10:01;;;;;;;;;;;;;;;30.97;57.54;100919.06;5075558;27;69260;-45
2023/01/18 10:12:32;;;;;;;;;;;;;;;30.98;57.19;100920.75;5078181;28;66914;-44
2023/01/18 10:15:16;;;;;;;;;;;;;;;30.97;57.53;100924.47;5044125;28;68389;-45
2023/01/18 10:17:49;;;;;;;;;;;;;;;30.85;58.16;100929.78;5075451;27;66093;-43
2023/01/18 10:20:23;;;;;;;;;;;;;;;30.70;59.07;100938.19;5078120;27;69856;-41
2023/01/18 10:23:15;;;;;;;;;;;;;;;30.65;59.73;100945.31;5074697;27;65811;-43
2023/01/18 10:25:52;;;;;;;;;;;;;;;30.61;60.40;100947.59;5068631;27;69302;-43
2023/01/18 10:28:25;;;;;;;;;;;;;;;30.58;60.13;100958.03;5080302;27;65629;-43
2023/01/18 10:31:18;;;;;;;;;;;;;;;30.57;60.50;100959.91;5076049;27;69296;-43
2023/01/18 10:33:52;;;;;;;;;;;;;;;30.57;60.63;100962.63;5043788;28;66443;-45
2023/01/18 10:36:25;;;;;;;;;;;;;;;30.54;60.58;100965.75;5077020;27;69519;-45
2023/01/18 10:38:56;;;;;;;;;;;;;;;30.53;60.71;100972.19;5079851;27;66750;-43
2023/01/18 10:41:30;;;;;;;;;;;;;;;30.55;60.55;100964.72;5079008;27;69760;-42
2023/01/18 10:44:01;;;;;;;;;;;;;;;30.54;60.83;100957.66;5080653;27;66473;-44
2023/01/18 10:46:32;;;;;;;;;;;;;;;30.53;60.24;100960.56;5081738;27;69251;-44
2023/01/18 10:49:03;;;;;;;;;;;;;;;30.54;60.71;100956.81;5066694;27;66044;-42
2023/01/18 10:51:35;;;;;;;;;;;;;;;30.53;60.99;100950.56;5075929;27;70384;-42
2023/01/18 10:54:18;;;;;;;;;;;;;;;30.53;60.55;100955.97;5076555;27;66231;-41
2023/01/18 10:56:49;;;;;;;;;;;;;;;30.54;60.37;100951.41;5076937;27;70112;-43
2023/01/18 10:59:25;;;;;;;;;;;;;;;30.55;60.80;100961.19;5081430;27;65683;-42
2023/01/18 11:01:57;;;;;;;;;;;;;;;30.55;61.31;100962.00;5083394;27;70503;-41
2023/01/18 11:04:29;;;;;;;;;;;;;;;30.55;61.23;100964.72;5073080;27;66792;-42
2023/01/18 11:07:04;;;;;;;;;;;;;;;30.54;60.51;100973.88;5082924;27;69409;-41
2023/01/18 11:09:54;;;;;;;;;;;;;;;30.53;59.33;100977.63;5078457;27;66175;-40
2023/01/18 11:12:41;;;;;;;;;;;;;;;30.52;57.86;100978.69;5054336;27;69993;-40
2023/01/18 11:15:14;;;;;;;;;;;;;;;30.48;57.94;100986.41;5074217;27;66422;-42
2023/01/18 11:17:45;;;;;;;;;;;;;;;30.48;56.84;100985.59;5079300;27;69859;-43
2023/01/18 11:20:18;;;;;;;;;;;;;;;30.48;58.18;100991.00;5079966;27;66179;-41
2023/01/18 11:22:57;;;;;;;;;;;;;;;30.50;58.96;100994.28;5072349;27;70549;-41
2023/01/18 11:25:39;;;;;;;;;;;;;;;30.53;59.86;100993.03;5078468;27;66977;-40
2023/01/18 11:28:21;;;;;;;;;;;;;;;30.51;59.67;100995.97;5078562;27;69306;-41
2023/01/18 11:30:57;;;;;;;;;;;;;;;30.54;59.50;100990.13;5075338;27;66703;-43
2023/01/18 11:33:29;;;;;;;;;;;;;;;30.51;59.70;100985.16;5040879;27;68761;-42
2023/01/18 11:36:01;;;;;;;;;;;;;;;30.51;60.24;100987.84;5076883;27;67299;-41
2023/01/18 11:38:33;;;;;;;;;;;;;;;30.50;60.84;100991.59;5073015;27;69245;-40
2023/01/18 11:41:13;;;;;;;;;;;;;;;30.46;61.39;100998.50;5053349;27;66528;-40
2023/01/18 11:44:01;;;;;;;;;;;;;;;30.44;61.45;101008.69;5053405;28;69281;-38
2023/01/18 11:46:44;;;;;;;;;;;;;;;30.17;61.27;100976.31;5077463;27;67039;-39
2023/01/18 11:49:21;;;;;;;;;;;;;;;30.38;61.36;101023.09;5081907;27;69785;-43
2023/01/18 11:52:00;;;;;;;;;;;;;;;30.37;61.27;101029.53;5085559;27;66415;-39
2023/01/18 11:54:38;;;;;;;;;;;;;;;30.36;61.83;101025.16;5087326;27;70698;-38
2023/01/18 11:57:11;;;;;;;;;;;;;;;30.33;61.22;101031.00;5082103;27;66057;-38
2023/01/18 11:59:45;;;;;;;;;;;;;;;30.29;61.93;101038.72;5085968;27;69038;-39
2023/01/18 12:02:31;;;;;;;;;;;;;;;30.28;61.53;101046.03;5084336;27;65574;-39
2023/01/18 12:05:09;;;;;;;;;;;;;;;30.27;61.67;101041.63;5087201;27;70289;-38
2023/01/18 12:07:43;;;;;;;;;;;;;;;30.24;61.39;101050.19;5081759;27;66944;-40
2023/01/18 12:10:22;;;;;;;;;;;;;;;30.23;61.28;101053.94;5087917;27;70248;-37
2023/01/18 12:13:11;;;;;;;;;;;;;;;30.21;59.41;101050.56;5077125;27;66863;-40
2023/01/18 12:15:59;;;;;;;;;;;;;;;30.15;58.03;101054.13;5083827;27;69843;-40
2023/01/18 12:18:46;;;;;;;;;;;;;;;30.16;60.15;101058.50;5086202;27;66769;-38
2023/01/18 12:21:20;;;;;;;;;;;;;;;30.20;61.20;101059.75;5080956;27;70727;-40
2023/01/18 12:24:05;;;;;;;;;;;;;;;30.21;61.61;101072.22;5087415;27;65647;-39
2023/01/18 12:26:35;;;;;;;;;;;;;;;30.21;61.81;101082.22;5064568;28;70573;-40
2023/01/18 12:29:24;;;;;;;;;;;;;;;30.19;62.13;101077.00;5092358;27;66198;-40
2023/01/18 12:32:13;;;;;;;;;;;;;;;30.18;62.23;101083.47;5079466;27;69140;-40
2023/01/18 12:35:01;;;;;;;;;;;;;;;30.19;62.95;101085.13;5058633;28;66246;-40
2023/01/18 12:37:51;;;;;;;;;;;;;;;30.18;62.69;101088.88;5063936;27;70128;-40
2023/01/18 12:40:31;;;;;;;;;;;;;;;30.20;62.79;101099.47;5077256;27;66715;-37
2023/01/18 12:43:07;;;;;;;;;;;;;;;30.22;62.57;101094.72;5067428;27;71143;-39
2023/01/18 12:45:42;;;;;;;;;;;;;;;30.22;62.93;101105.56;5079233;27;66475;-39
2023/01/18 12:48:23;;;;;;;;;;;;;;;30.19;62.86;101114.88;5068391;27;69909;-40
2023/01/18 12:50:55;;;;;;;;;;;;;;;30.21;62.53;101110.09;5079555;27;65437;-43
2023/01/18 12:53:55;;;;;;;;;;;;;;;30.23;63.15;101115.34;5076196;27;69664;-40
2023/01/18 12:56:36;;;;;;;;;;;;;;;30.24;62.44;101120.53;5064097;27;65670;-42
2023/01/18 12:59:14;;;;;;;;;;;;;;;30.23;62.43;101118.88;5076333;27;69791;-41
2023/01/18 13:01:50;;;;;;;;;;;;;;;30.23;62.94;101121.59;5076259;27;66185;-39
2023/01/18 13:04:25;;;;;;;;;;;;;;;30.26;62.13;101129.28;5058486;27;70057;-40
2023/01/18 13:06:58;;;;;;;;;;;;;;;30.28;62.31;101126.34;5056171;28;66289;-39
2023/01/18 13:09:33;;;;;;;;;;;;;;;30.08;62.62;101098.47;5073535;27;71159;-41
2023/01/18 13:12:04;;;;;;;;;;;;;;;30.31;63.09;101142.16;5075165;27;66200;-38
2023/01/18 13:14:53;;;;;;;;;;;;;;;30.30;63.21;101134.28;5080760;27;68536;-41
2023/01/18 13:17:27;;;;;;;;;;;;;;;30.31;63.17;101134.03;5078528;27;65757;-41
2023/01/18 13:20:03;;;;;;;;;;;;;;;30.32;62.99;101133.03;5056264;27;69221;-41
2023/01/18 13:22:37;;;;;;;;;;;;;;;30.31;62.62;101139.47;5074997;27;66495;-41
2023/01/18 13:25:08;;;;;;;;;;;;;;;30.29;63.26;101133.44;5086047;27;70353;-39
2023/01/18 13:27:54;;;;;;;;;;;;;;;30.30;63.15;101143.22;5080334;27;65220;-38
2023/01/18 13:30:26;;;;;;;;;;;;;;;30.27;61.12;101143.63;5080876;27;69562;-37
2023/01/18 13:32:58;;;;;;;;;;;;;;;30.25;62.32;101143.84;5081265;27;66723;-39
2023/01/18 13:35:32;;;;;;;;;;;;;;;30.24;61.97;101144.88;5086392;27;70528;-41
2023/01/18 13:38:12;;;;;;;;;;;;;;;30.22;62.32;101146.13;5067087;27;66644;-40